createdAt,value
2022-12-28T00:00:26.857Z,16.88
2022-12-28T00:03:32.676Z,16.85
2022-12-28T00:06:37.269Z,14.43
2022-12-28T00:09:41.743Z,16.75
2022-12-28T00:12:46.277Z,17.95
2022-12-28T00:15:50.769Z,17.33
2022-12-28T00:18:56.499Z,17.58
2022-12-28T00:25:05.347Z,17.20
2022-12-28T00:28:09.784Z,15.73
2022-12-28T00:31:15.239Z,18.65
2022-12-28T00:34:19.723Z,16.48
2022-12-28T00:37:24.415Z,17.17
2022-12-28T00:40:29.166Z,16.60
2022-12-28T00:43:34.248Z,19.90
2022-12-28T00:46:38.841Z,20.90
2022-12-28T00:49:43.320Z,18.75
2022-12-28T00:52:47.722Z,17.55
2022-12-28T00:55:52.333Z,16.52
2022-12-28T00:59:00.981Z,20.35
2022-12-28T01:02:05.568Z,16.13
2022-12-28T01:05:10.745Z,14.00
2022-12-28T01:08:15.373Z,16.85
2022-12-28T01:11:37.835Z,9.03
2022-12-28T01:14:42.489Z,16.95
2022-12-28T01:17:46.884Z,17.77
2022-12-28T01:20:51.517Z,18.73
2022-12-28T01:23:58.848Z,20.83
2022-12-28T01:27:03.221Z,14.98
2022-12-28T01:30:09.198Z,16.45
2022-12-28T01:33:15.261Z,16.98
2022-12-28T01:36:25.427Z,14.38
2022-12-28T01:39:30.461Z,16.00
2022-12-28T01:42:34.940Z,15.82
2022-12-28T01:45:40.113Z,15.57
2022-12-28T01:49:03.506Z,14.40
2022-12-28T01:52:20.652Z,15.23
2022-12-28T01:55:32.651Z,16.27
2022-12-28T01:58:37.781Z,15.02
2022-12-28T02:01:42.383Z,15.70
2022-12-28T02:04:48.178Z,15.15
2022-12-28T02:08:15.686Z,16.52
2022-12-28T02:11:21.289Z,14.20
2022-12-28T02:14:26.037Z,17.33
2022-12-28T02:17:30.552Z,17.55
2022-12-28T02:20:52.927Z,12.98
2022-12-28T02:24:23.282Z,13.52
2022-12-28T02:27:53.990Z,12.95
2022-12-28T02:31:14.052Z,13.60
2022-12-28T02:34:33.986Z,9.88
2022-12-28T02:37:54.163Z,13.20
2022-12-28T02:41:10.580Z,13.13
2022-12-28T02:44:35.843Z,12.73
2022-12-28T02:48:02.880Z,12.60
2022-12-28T02:51:45.287Z,11.27
2022-12-28T02:55:22.550Z,12.57
2022-12-28T02:58:30.588Z,12.07
2022-12-28T03:01:57.952Z,11.80
2022-12-28T03:05:43.121Z,13.27
2022-12-28T03:09:27.636Z,11.15
2022-12-28T03:12:44.840Z,15.32
2022-12-28T03:15:50.743Z,11.07
2022-12-28T03:19:25.062Z,12.83
2022-12-28T03:22:50.964Z,9.07
2022-12-28T03:26:15.900Z,10.85
2022-12-28T03:29:45.773Z,11.90
2022-12-28T03:32:51.954Z,12.30
2022-12-28T03:36:05.212Z,11.00
2022-12-28T03:39:34.340Z,13.75
2022-12-28T03:43:11.074Z,15.13
2022-12-28T03:46:24.267Z,13.65
2022-12-28T03:49:29.930Z,13.30
2022-12-28T03:52:35.070Z,13.48
2022-12-28T03:55:41.402Z,14.98
2022-12-28T03:58:46.500Z,14.52
2022-12-28T04:01:52.790Z,16.63
2022-12-28T04:04:57.506Z,16.20
2022-12-28T04:08:02.818Z,13.73
2022-12-28T04:11:07.612Z,33.53
2022-12-28T04:14:12.177Z,21.37
2022-12-28T04:17:20.494Z,36.90
2022-12-28T04:20:25.345Z,24.47
2022-12-28T04:23:31.429Z,23.60
2022-12-28T04:27:02.839Z,30.90
2022-12-28T04:30:09.796Z,14.10
2022-12-28T04:33:14.110Z,26.17
2022-12-28T04:36:22.022Z,20.08
2022-12-28T04:39:27.700Z,21.60
2022-12-28T04:42:52.167Z,16.15
2022-12-28T04:46:02.649Z,13.98
2022-12-28T04:49:06.888Z,14.07
2022-12-28T04:52:11.293Z,13.57
2022-12-28T04:55:32.945Z,15.13
2022-12-28T04:58:38.564Z,14.45
2022-12-28T05:01:43.022Z,17.17
2022-12-28T05:04:47.336Z,13.93
2022-12-28T05:07:51.744Z,14.57
2022-12-28T05:10:56.158Z,11.65
2022-12-28T05:14:00.563Z,19.63
2022-12-28T05:17:04.992Z,16.85
2022-12-28T05:20:09.986Z,17.00
2022-12-28T05:23:14.361Z,12.25
2022-12-28T05:26:21.266Z,13.20
2022-12-28T05:29:25.658Z,17.45
2022-12-28T05:32:30.254Z,12.07
2022-12-28T05:35:36.590Z,12.57
2022-12-28T05:38:41.668Z,17.83
2022-12-28T05:41:46.001Z,17.25
2022-12-28T05:44:50.455Z,11.73
2022-12-28T05:47:56.396Z,12.85
2022-12-28T05:51:21.869Z,30.45
2022-12-28T05:54:26.345Z,18.73
2022-12-28T05:57:30.757Z,13.40
2022-12-28T06:00:35.291Z,10.15
2022-12-28T06:03:40.535Z,11.43
2022-12-28T06:06:45.975Z,12.35
2022-12-28T06:09:50.602Z,12.07
2022-12-28T06:12:55.155Z,11.55
2022-12-28T06:15:59.836Z,11.18
2022-12-28T06:19:12.791Z,11.53
2022-12-28T06:22:17.269Z,11.40
2022-12-28T06:25:21.747Z,12.00
2022-12-28T06:28:26.268Z,15.30
2022-12-28T06:31:33.520Z,19.08
2022-12-28T06:34:38.187Z,18.70
2022-12-28T06:37:42.709Z,16.50
2022-12-28T06:41:12.159Z,29.00
2022-12-28T06:44:14.615Z,20.08
2022-12-28T06:47:19.082Z,15.63
2022-12-28T06:50:23.726Z,29.52
2022-12-28T06:53:34.324Z,15.80
2022-12-28T06:56:39.642Z,25.48
2022-12-28T06:59:44.167Z,12.50
2022-12-28T07:02:48.953Z,10.40
2022-12-28T07:05:53.476Z,17.37
2022-12-28T07:09:06.751Z,16.80
2022-12-28T07:12:11.428Z,15.70
2022-12-28T07:15:16.039Z,18.67
2022-12-28T07:18:20.574Z,20.30
2022-12-28T07:21:30.647Z,18.38
2022-12-28T07:24:34.955Z,14.77
2022-12-28T07:27:39.422Z,17.23
2022-12-28T07:30:43.980Z,12.55
2022-12-28T07:33:49.616Z,19.33
2022-12-28T07:36:54.092Z,28.85
2022-12-28T07:39:58.803Z,20.02
2022-12-28T07:43:03.219Z,27.57
2022-12-28T07:46:11.483Z,29.25
2022-12-28T07:49:15.817Z,23.92
2022-12-28T07:52:20.666Z,24.25
2022-12-28T07:55:25.718Z,25.42
2022-12-28T07:58:30.036Z,23.52
2022-12-28T08:01:37.060Z,17.05
2022-12-28T08:04:41.835Z,18.98
2022-12-28T08:07:46.589Z,22.35
2022-12-28T08:10:51.103Z,22.80
2022-12-28T08:13:57.852Z,21.25
2022-12-28T08:17:02.169Z,17.33
2022-12-28T08:20:07.113Z,45.58
2022-12-28T08:23:11.665Z,28.58
2022-12-28T08:26:24.554Z,13.47
2022-12-28T08:29:29.136Z,17.77
2022-12-28T08:32:33.485Z,18.45
2022-12-28T08:35:37.901Z,19.77
2022-12-28T08:38:43.970Z,26.35
2022-12-28T08:41:48.337Z,22.48
2022-12-28T08:44:52.974Z,13.13
2022-12-28T08:47:57.459Z,9.47
2022-12-28T08:51:11.843Z,14.07
2022-12-28T08:54:16.416Z,13.65
2022-12-28T08:57:20.801Z,17.47
2022-12-28T09:00:25.378Z,10.55
2022-12-28T09:03:30.095Z,10.00
2022-12-28T09:06:37.722Z,10.90
2022-12-28T09:09:42.151Z,14.77
2022-12-28T09:12:46.445Z,24.67
2022-12-28T09:16:12.660Z,37.78
2022-12-28T09:22:22.993Z,12.48
2022-12-28T09:25:27.497Z,13.02
2022-12-28T09:28:31.741Z,12.30
2022-12-28T09:31:38.071Z,12.93
2022-12-28T09:34:42.628Z,12.30
2022-12-28T09:37:47.165Z,13.33
2022-12-28T09:40:51.628Z,14.63
2022-12-28T09:44:18.720Z,24.23
2022-12-28T09:47:39.633Z,28.02
2022-12-28T09:50:45.386Z,19.83
2022-12-28T09:53:50.205Z,16.15
2022-12-28T09:56:55.444Z,19.35
2022-12-28T10:00:00.000Z,18.98
2022-12-28T10:03:11.196Z,15.68
2022-12-28T10:06:19.369Z,13.82
2022-12-28T10:09:30.781Z,15.55
2022-12-28T10:12:35.683Z,32.90
2022-12-28T10:15:40.071Z,14.65
2022-12-28T10:18:46.779Z,10.77
2022-12-28T10:22:05.280Z,17.27
2022-12-28T10:25:19.195Z,35.30
2022-12-28T10:28:28.046Z,17.05
2022-12-28T10:31:37.159Z,17.52
2022-12-28T10:34:55.745Z,18.27
2022-12-28T10:38:23.475Z,16.88
2022-12-28T10:41:38.114Z,15.98
2022-12-28T10:44:42.606Z,16.08
2022-12-28T10:47:53.021Z,15.90
2022-12-28T10:51:13.616Z,13.88
2022-12-28T10:54:27.787Z,15.35
2022-12-28T10:57:38.001Z,18.67
2022-12-28T11:00:48.525Z,14.50
2022-12-28T11:03:56.986Z,15.60
2022-12-28T11:07:03.461Z,14.50
2022-12-28T11:10:27.065Z,13.35
2022-12-28T11:13:31.536Z,13.50
2022-12-28T11:16:38.881Z,16.30
2022-12-28T11:19:43.776Z,26.55
2022-12-28T11:22:48.887Z,22.90
2022-12-28T11:25:54.026Z,19.15
2022-12-28T11:28:58.805Z,16.85
2022-12-28T11:32:05.907Z,15.57
2022-12-28T11:35:21.162Z,17.17
2022-12-28T11:38:47.058Z,16.13
2022-12-28T11:42:27.660Z,19.15
2022-12-28T11:48:44.827Z,13.82
2022-12-28T11:51:49.410Z,12.45
2022-12-28T11:54:57.047Z,14.17
2022-12-28T11:58:30.274Z,18.48
2022-12-28T12:01:37.600Z,21.60
2022-12-28T12:04:46.959Z,21.10
2022-12-28T12:07:51.513Z,35.97
2022-12-28T12:11:23.511Z,30.03
2022-12-28T12:14:41.675Z,20.15
2022-12-28T12:18:06.769Z,19.05
2022-12-28T12:21:30.482Z,18.00
2022-12-28T12:24:43.930Z,16.58
2022-12-28T12:28:02.297Z,15.77
2022-12-28T12:31:13.204Z,17.10
2022-12-28T12:34:46.798Z,16.95
2022-12-28T12:38:12.363Z,14.65
2022-12-28T12:41:33.380Z,19.77
2022-12-28T12:44:46.396Z,23.23
2022-12-28T12:48:05.698Z,34.70
2022-12-28T12:51:31.914Z,94.40
2022-12-28T12:54:45.371Z,83.32
2022-12-28T12:58:01.754Z,46.30
2022-12-28T13:01:27.986Z,32.33
2022-12-28T13:04:36.629Z,47.38
2022-12-28T13:07:41.409Z,44.42
2022-12-28T13:10:47.683Z,24.25
2022-12-28T13:13:55.051Z,45.85
2022-12-28T13:17:01.960Z,34.58
2022-12-28T13:20:32.537Z,39.20
2022-12-28T13:23:45.657Z,24.85
2022-12-28T13:26:51.051Z,20.80
2022-12-28T13:33:05.559Z,13.48
2022-12-28T13:36:18.330Z,15.65
2022-12-28T13:39:23.500Z,12.60
2022-12-28T13:42:38.169Z,15.02
2022-12-28T13:45:47.644Z,12.63
2022-12-28T13:48:58.746Z,14.20
2022-12-28T13:52:10.507Z,11.52
2022-12-28T13:55:22.361Z,12.77
2022-12-28T13:58:29.877Z,13.32
2022-12-28T14:01:41.321Z,13.55
2022-12-28T14:04:54.320Z,14.65
2022-12-28T14:08:00.757Z,21.15
2022-12-28T14:11:06.462Z,18.10
2022-12-28T14:14:12.470Z,20.40
2022-12-28T14:17:18.124Z,26.42
2022-12-28T14:20:22.829Z,18.60
2022-12-28T14:23:31.279Z,15.95
2022-12-28T14:26:37.259Z,21.95
2022-12-28T14:29:41.619Z,19.30
2022-12-28T14:32:46.217Z,18.27
2022-12-28T14:35:55.860Z,15.43
2022-12-28T14:39:05.032Z,14.10
2022-12-28T14:42:22.320Z,22.73
2022-12-28T14:46:07.406Z,19.92
2022-12-28T14:49:30.588Z,17.90
2022-12-28T14:52:43.678Z,15.90
2022-12-28T14:56:00.243Z,15.45
2022-12-28T14:59:04.823Z,24.80
2022-12-28T15:02:35.222Z,23.50
2022-12-28T15:05:43.601Z,23.42
2022-12-28T15:08:52.979Z,26.88
2022-12-28T15:12:15.130Z,20.95
2022-12-28T15:15:19.567Z,22.67
2022-12-28T15:18:24.419Z,15.93
2022-12-28T15:21:28.800Z,19.05
2022-12-28T15:24:34.232Z,17.47
2022-12-28T15:27:40.206Z,18.17
2022-12-28T15:30:45.640Z,16.58
2022-12-28T15:36:54.102Z,14.00
2022-12-28T15:39:58.555Z,14.98
2022-12-28T15:43:02.985Z,16.63
2022-12-28T15:46:07.338Z,13.63
2022-12-28T15:49:14.100Z,16.33
2022-12-28T15:52:18.606Z,14.65
2022-12-28T15:55:23.117Z,13.77
2022-12-28T15:58:28.332Z,14.67
2022-12-28T16:01:34.347Z,12.65
2022-12-28T16:04:38.805Z,13.52
2022-12-28T16:07:43.411Z,15.95
2022-12-28T16:10:48.364Z,17.27
2022-12-28T16:14:01.701Z,14.32
2022-12-28T16:17:06.177Z,17.60
2022-12-28T16:20:12.466Z,15.30
2022-12-28T16:23:16.724Z,15.18
2022-12-28T16:26:21.671Z,15.88
2022-12-28T16:29:26.241Z,17.13
2022-12-28T16:32:31.010Z,12.13
2022-12-28T16:35:35.799Z,14.27
2022-12-28T16:38:40.286Z,18.60
2022-12-28T16:41:45.211Z,14.63
2022-12-28T16:44:49.569Z,18.42
2022-12-28T16:47:54.113Z,16.43
2022-12-28T16:51:00.190Z,16.63
2022-12-28T16:54:04.878Z,20.35
2022-12-28T16:57:09.315Z,19.73
2022-12-28T17:00:14.843Z,30.80
2022-12-28T17:03:19.435Z,35.63
2022-12-28T17:06:24.070Z,26.70
2022-12-28T17:09:28.807Z,17.53
2022-12-28T17:12:33.884Z,16.33
2022-12-28T17:15:43.086Z,12.90
2022-12-28T17:18:47.425Z,15.82
2022-12-28T17:21:51.899Z,13.43
2022-12-28T17:24:56.321Z,18.87
2022-12-28T17:28:01.164Z,18.33
2022-12-28T17:31:11.993Z,21.48
2022-12-28T17:34:16.537Z,16.25
2022-12-28T17:37:20.777Z,14.97
2022-12-28T17:40:25.370Z,21.92
2022-12-28T17:43:29.835Z,24.40
2022-12-28T17:46:41.497Z,23.50
2022-12-28T17:49:46.139Z,27.55
2022-12-28T17:52:50.788Z,26.10
2022-12-28T17:55:55.425Z,24.50
2022-12-28T17:59:00.721Z,18.02
2022-12-28T18:05:14.473Z,15.60
2022-12-28T18:08:20.878Z,13.68
2022-12-28T18:11:26.000Z,15.52
2022-12-28T18:14:30.616Z,14.32
2022-12-28T18:17:35.367Z,14.82
2022-12-28T18:20:39.851Z,16.58
2022-12-28T18:23:53.792Z,18.03
2022-12-28T18:26:58.440Z,11.70
2022-12-28T18:30:03.032Z,17.15
2022-12-28T18:33:07.719Z,17.35
2022-12-28T18:36:17.304Z,16.98
2022-12-28T18:39:22.189Z,20.48
2022-12-28T18:42:26.945Z,19.15
2022-12-28T18:45:31.450Z,17.87
2022-12-28T18:48:42.014Z,19.13
2022-12-28T18:51:46.503Z,18.23
2022-12-28T18:54:50.850Z,16.80
2022-12-28T18:57:55.424Z,18.25
2022-12-28T19:01:05.506Z,30.75
2022-12-28T19:04:10.867Z,23.95
2022-12-28T19:10:22.078Z,20.88
2022-12-28T19:13:26.613Z,22.33
2022-12-28T19:16:32.209Z,21.35
2022-12-28T19:19:36.980Z,19.75
2022-12-28T19:22:41.368Z,25.65
2022-12-28T19:25:46.055Z,37.03
2022-12-28T19:28:50.962Z,58.65
2022-12-28T19:31:55.898Z,40.88
2022-12-28T19:35:00.368Z,25.58
2022-12-28T19:38:04.768Z,21.25
2022-12-28T19:41:12.403Z,19.50
2022-12-28T19:44:20.974Z,24.33
2022-12-28T19:47:25.499Z,17.10
2022-12-28T19:50:30.346Z,18.30
2022-12-28T19:53:34.862Z,23.08
2022-12-28T19:56:39.378Z,22.73
2022-12-28T19:59:43.767Z,18.42
2022-12-28T20:02:48.377Z,18.75
2022-12-28T20:05:52.982Z,19.52
2022-12-28T20:09:00.234Z,19.00
2022-12-28T20:12:04.676Z,17.98
2022-12-28T20:15:09.582Z,24.97
2022-12-28T20:18:14.010Z,23.25
2022-12-28T20:21:20.722Z,24.43
2022-12-28T20:24:25.915Z,71.00
2022-12-28T20:27:31.376Z,20.23
2022-12-28T20:33:40.391Z,16.08
2022-12-28T20:36:45.007Z,15.18
2022-12-28T20:39:49.361Z,15.02
2022-12-28T20:43:12.140Z,14.57
2022-12-28T20:46:16.678Z,20.02
2022-12-28T20:49:21.668Z,18.73
2022-12-28T20:52:26.310Z,18.35
2022-12-28T20:55:30.895Z,17.25
2022-12-28T20:58:37.509Z,24.35
2022-12-28T21:01:42.970Z,27.98
2022-12-28T21:04:47.595Z,56.88
2022-12-28T21:07:52.219Z,38.28
2022-12-28T21:10:56.847Z,28.60
2022-12-28T21:14:02.057Z,21.77
2022-12-28T21:17:06.429Z,22.25
2022-12-28T21:20:12.007Z,22.63
2022-12-28T21:23:17.051Z,29.45
2022-12-28T21:26:22.771Z,24.45
2022-12-28T21:29:27.696Z,25.60
2022-12-28T21:32:31.982Z,22.35
2022-12-28T21:35:36.548Z,27.47
2022-12-28T21:38:43.089Z,30.13
2022-12-28T21:41:50.768Z,25.60
2022-12-28T21:44:55.325Z,25.52
2022-12-28T21:47:59.644Z,21.65
2022-12-28T21:51:31.936Z,25.77
2022-12-28T21:54:36.409Z,27.33
2022-12-28T21:57:41.038Z,28.30
2022-12-28T22:01:04.229Z,27.83
2022-12-28T22:04:30.382Z,49.78
2022-12-28T22:10:59.945Z,47.08
2022-12-28T22:14:06.099Z,40.78
2022-12-28T22:17:14.202Z,62.83
2022-12-28T22:20:19.180Z,72.80
2022-12-28T22:23:27.484Z,57.67
2022-12-28T22:26:35.546Z,72.90
2022-12-28T22:29:39.729Z,77.83
2022-12-28T22:32:44.027Z,85.65
2022-12-28T22:35:48.536Z,34.00
2022-12-28T22:38:55.208Z,32.97
2022-12-28T22:41:59.703Z,43.55
2022-12-28T22:45:04.781Z,51.13
2022-12-28T22:48:09.214Z,55.53
2022-12-28T22:51:15.740Z,42.73
2022-12-28T22:54:19.888Z,55.28
2022-12-28T22:57:24.610Z,32.63
2022-12-28T23:00:29.212Z,48.05
2022-12-28T23:03:33.633Z,41.47
2022-12-28T23:06:38.222Z,57.95
2022-12-28T23:09:42.633Z,37.72
2022-12-28T23:12:47.116Z,33.03
2022-12-28T23:16:03.554Z,17.75
2022-12-28T23:19:27.581Z,15.88
2022-12-28T23:22:54.153Z,19.73
2022-12-28T23:26:20.246Z,24.40
2022-12-28T23:32:35.104Z,22.60
2022-12-28T23:35:39.685Z,48.63
2022-12-28T23:38:44.152Z,23.92
2022-12-28T23:41:51.694Z,21.27
2022-12-28T23:44:56.564Z,18.10
2022-12-28T23:48:01.001Z,12.73
2022-12-28T23:51:12.065Z,57.00
2022-12-28T23:54:18.394Z,42.75
2022-12-28T23:57:23.334Z,26.38
